Utica, Nebraska
Current Conditions -  °F | °C
As of 7:35 AM on Sunday 23 Nov 2014 (Local Time) from KJYR Reporting Station
Broken Clouds Broken Clouds  
Wind Chill: 43°   Ceiling: 2500
Heat Index: 48°   Visibility: 7mi
Dew Point: 46°   Wind: 12mph
Humidity: 93%   Direction: 320°NW
Pressure: 29.5"   Gusts: NA
Location:  40.9°N, 97.35°W
Report Text: KJYR 231335Z AUTO 32010KT 7SM FEW011 SCT018 BKN025 09/08 A2950 RMK AO2
Loading
Personal Weather Stations






























Interactive Weather Map New forecast layout! Learn more

10-Day Weather Forecast

Advertisements
Track Severe Weather on mobile